sensor_id;sensor_type;location;lat;lon;timestamp;P1;durP1;ratioP1;P2;durP2;ratioP2
75718;SDS011;64340;48.534;-3.036;2023-06-04T00:00:47;5.07;;;3.28;;
75718;SDS011;64340;48.534;-3.036;2023-06-04T00:03:13;5.45;;;3.63;;
75718;SDS011;64340;48.534;-3.036;2023-06-04T00:05:39;5.32;;;3.05;;
75718;SDS011;64340;48.534;-3.036;2023-06-04T00:08:05;7.47;;;3.38;;
75718;SDS011;64340;48.534;-3.036;2023-06-04T00:10:30;4.80;;;2.65;;
75718;SDS011;64340;48.534;-3.036;2023-06-04T00:12:58;5.20;;;3.13;;
75718;SDS011;64340;48.534;-3.036;2023-06-04T00:15:24;5.40;;;2.60;;
75718;SDS011;64340;48.534;-3.036;2023-06-04T00:17:51;5.40;;;3.00;;
75718;SDS011;64340;48.534;-3.036;2023-06-04T00:20:17;5.43;;;2.60;;
75718;SDS011;64340;48.534;-3.036;2023-06-04T00:22:43;4.43;;;2.75;;
75718;SDS011;64340;48.534;-3.036;2023-06-04T00:25:09;7.28;;;2.80;;
75718;SDS011;64340;48.534;-3.036;2023-06-04T00:27:35;7.25;;;3.10;;
75718;SDS011;64340;48.534;-3.036;2023-06-04T00:30:02;6.18;;;3.28;;
75718;SDS011;64340;48.534;-3.036;2023-06-04T00:32:28;5.75;;;3.13;;
75718;SDS011;64340;48.534;-3.036;2023-06-04T00:34:55;7.47;;;3.30;;
75718;SDS011;64340;48.534;-3.036;2023-06-04T00:37:23;4.10;;;2.90;;
75718;SDS011;64340;48.534;-3.036;2023-06-04T00:39:49;4.90;;;3.05;;
75718;SDS011;64340;48.534;-3.036;2023-06-04T00:42:15;6.68;;;3.03;;
75718;SDS011;64340;48.534;-3.036;2023-06-04T00:44:42;7.22;;;2.63;;
75718;SDS011;64340;48.534;-3.036;2023-06-04T00:47:12;6.30;;;2.65;;
75718;SDS011;64340;48.534;-3.036;2023-06-04T00:49:39;5.30;;;2.63;;
75718;SDS011;64340;48.534;-3.036;2023-06-04T00:52:06;5.43;;;2.70;;
75718;SDS011;64340;48.534;-3.036;2023-06-04T00:54:34;4.78;;;2.53;;
75718;SDS011;64340;48.534;-3.036;2023-06-04T00:57:00;5.88;;;2.90;;
75718;SDS011;64340;48.534;-3.036;2023-06-04T00:59:27;4.63;;;2.95;;
75718;SDS011;64340;48.534;-3.036;2023-06-04T01:04:46;3.78;;;2.42;;
75718;SDS011;64340;48.534;-3.036;2023-06-04T01:07:19;5.05;;;2.53;;
75718;SDS011;64340;48.534;-3.036;2023-06-04T01:09:46;4.88;;;2.55;;
75718;SDS011;64340;48.534;-3.036;2023-06-04T01:12:13;4.45;;;2.50;;
75718;SDS011;64340;48.534;-3.036;2023-06-04T01:14:38;4.45;;;2.72;;
75718;SDS011;64340;48.534;-3.036;2023-06-04T01:17:25;7.43;;;3.28;;
75718;SDS011;64340;48.534;-3.036;2023-06-04T01:20:04;6.55;;;2.78;;
75718;SDS011;64340;48.534;-3.036;2023-06-04T01:27:59;5.30;;;2.25;;
75718;SDS011;64340;48.534;-3.036;2023-06-04T01:30:29;4.80;;;2.35;;
75718;SDS011;64340;48.534;-3.036;2023-06-04T01:32:57;5.38;;;2.40;;
75718;SDS011;64340;48.534;-3.036;2023-06-04T01:35:27;5.15;;;2.50;;
75718;SDS011;64340;48.534;-3.036;2023-06-04T01:37:56;4.65;;;2.60;;
75718;SDS011;64340;48.534;-3.036;2023-06-04T01:40:22;3.55;;;2.22;;
75718;SDS011;64340;48.534;-3.036;2023-06-04T01:42:50;7.10;;;2.70;;
75718;SDS011;64340;48.534;-3.036;2023-06-04T01:45:15;4.32;;;2.20;;
75718;SDS011;64340;48.534;-3.036;2023-06-04T01:47:41;4.47;;;2.22;;
75718;SDS011;64340;48.534;-3.036;2023-06-04T01:50:07;4.97;;;2.13;;
75718;SDS011;64340;48.534;-3.036;2023-06-04T01:52:37;6.05;;;1.85;;
75718;SDS011;64340;48.534;-3.036;2023-06-04T01:55:04;5.70;;;2.40;;
75718;SDS011;64340;48.534;-3.036;2023-06-04T01:57:32;7.18;;;2.28;;
75718;SDS011;64340;48.534;-3.036;2023-06-04T01:59:59;5.43;;;2.20;;
75718;SDS011;64340;48.534;-3.036;2023-06-04T02:02:25;5.00;;;2.35;;
75718;SDS011;64340;48.534;-3.036;2023-06-04T02:04:52;4.63;;;2.17;;
75718;SDS011;64340;48.534;-3.036;2023-06-04T02:07:18;5.38;;;2.45;;
75718;SDS011;64340;48.534;-3.036;2023-06-04T02:09:47;4.45;;;2.38;;
75718;SDS011;64340;48.534;-3.036;2023-06-04T02:12:13;3.95;;;2.20;;
75718;SDS011;64340;48.534;-3.036;2023-06-04T02:14:39;6.82;;;2.50;;
75718;SDS011;64340;48.534;-3.036;2023-06-04T02:17:07;4.80;;;2.75;;
75718;SDS011;64340;48.534;-3.036;2023-06-04T02:19:41;6.45;;;2.30;;
75718;SDS011;64340;48.534;-3.036;2023-06-04T02:22:17;6.43;;;2.30;;
75718;SDS011;64340;48.534;-3.036;2023-06-04T02:24:44;6.15;;;2.58;;
75718;SDS011;64340;48.534;-3.036;2023-06-04T02:27:11;3.50;;;2.03;;
75718;SDS011;64340;48.534;-3.036;2023-06-04T02:29:38;5.70;;;2.38;;
75718;SDS011;64340;48.534;-3.036;2023-06-04T02:32:05;6.57;;;2.67;;
75718;SDS011;64340;48.534;-3.036;2023-06-04T02:34:31;3.78;;;2.10;;
75718;SDS011;64340;48.534;-3.036;2023-06-04T02:36:57;6.13;;;2.10;;
75718;SDS011;64340;48.534;-3.036;2023-06-04T02:39:23;6.18;;;2.42;;
75718;SDS011;64340;48.534;-3.036;2023-06-04T02:41:49;5.25;;;2.13;;
75718;SDS011;64340;48.534;-3.036;2023-06-04T02:44:15;3.47;;;1.88;;
75718;SDS011;64340;48.534;-3.036;2023-06-04T02:46:40;5.00;;;1.88;;
75718;SDS011;64340;48.534;-3.036;2023-06-04T02:49:06;4.10;;;1.92;;
75718;SDS011;64340;48.534;-3.036;2023-06-04T02:51:32;4.60;;;1.88;;
75718;SDS011;64340;48.534;-3.036;2023-06-04T02:53:58;3.28;;;1.90;;
75718;SDS011;64340;48.534;-3.036;2023-06-04T02:56:24;4.80;;;2.05;;
75718;SDS011;64340;48.534;-3.036;2023-06-04T02:58:51;3.72;;;1.95;;
75718;SDS011;64340;48.534;-3.036;2023-06-04T03:01:21;5.47;;;2.55;;
75718;SDS011;64340;48.534;-3.036;2023-06-04T03:03:48;4.63;;;2.15;;
75718;SDS011;64340;48.534;-3.036;2023-06-04T03:06:15;4.47;;;1.70;;
75718;SDS011;64340;48.534;-3.036;2023-06-04T03:08:42;4.97;;;2.17;;
75718;SDS011;64340;48.534;-3.036;2023-06-04T03:11:08;4.68;;;2.15;;
75718;SDS011;64340;48.534;-3.036;2023-06-04T03:13:34;5.55;;;2.15;;
75718;SDS011;64340;48.534;-3.036;2023-06-04T03:16:01;4.85;;;2.08;;
75718;SDS011;64340;48.534;-3.036;2023-06-04T03:18:27;4.18;;;2.20;;
75718;SDS011;64340;48.534;-3.036;2023-06-04T03:20:54;3.78;;;1.80;;
75718;SDS011;64340;48.534;-3.036;2023-06-04T03:23:22;6.28;;;1.85;;
75718;SDS011;64340;48.534;-3.036;2023-06-04T03:25:48;7.28;;;2.45;;
75718;SDS011;64340;48.534;-3.036;2023-06-04T03:28:14;6.22;;;2.03;;
75718;SDS011;64340;48.534;-3.036;2023-06-04T03:30:40;3.50;;;2.10;;
75718;SDS011;64340;48.534;-3.036;2023-06-04T03:33:06;3.20;;;1.70;;
75718;SDS011;64340;48.534;-3.036;2023-06-04T03:35:32;4.07;;;2.13;;
75718;SDS011;64340;48.534;-3.036;2023-06-04T03:37:58;2.60;;;1.27;;
75718;SDS011;64340;48.534;-3.036;2023-06-04T03:40:24;6.10;;;1.80;;
75718;SDS011;64340;48.534;-3.036;2023-06-04T03:42:50;3.85;;;1.80;;
75718;SDS011;64340;48.534;-3.036;2023-06-04T03:45:16;4.13;;;1.80;;
75718;SDS011;64340;48.534;-3.036;2023-06-04T03:47:42;3.78;;;2.10;;
75718;SDS011;64340;48.534;-3.036;2023-06-04T03:50:08;3.80;;;1.92;;
75718;SDS011;64340;48.534;-3.036;2023-06-04T03:52:34;4.50;;;2.00;;
75718;SDS011;64340;48.534;-3.036;2023-06-04T03:55:00;3.45;;;1.65;;
75718;SDS011;64340;48.534;-3.036;2023-06-04T03:57:26;4.32;;;1.80;;
75718;SDS011;64340;48.534;-3.036;2023-06-04T03:59:52;2.70;;;1.35;;
75718;SDS011;64340;48.534;-3.036;2023-06-04T04:02:18;4.75;;;1.90;;
75718;SDS011;64340;48.534;-3.036;2023-06-04T04:04:43;4.65;;;1.58;;
75718;SDS011;64340;48.534;-3.036;2023-06-04T04:07:10;4.68;;;1.65;;
75718;SDS011;64340;48.534;-3.036;2023-06-04T04:09:36;3.72;;;1.70;;
75718;SDS011;64340;48.534;-3.036;2023-06-04T04:12:02;3.78;;;2.10;;
75718;SDS011;64340;48.534;-3.036;2023-06-04T04:14:28;4.25;;;1.83;;
75718;SDS011;64340;48.534;-3.036;2023-06-04T04:16:54;3.70;;;1.65;;
75718;SDS011;64340;48.534;-3.036;2023-06-04T04:19:20;3.75;;;1.67;;
75718;SDS011;64340;48.534;-3.036;2023-06-04T04:21:47;4.70;;;1.70;;
75718;SDS011;64340;48.534;-3.036;2023-06-04T04:24:34;3.03;;;1.58;;
75718;SDS011;64340;48.534;-3.036;2023-06-04T04:27:00;4.38;;;1.75;;
75718;SDS011;64340;48.534;-3.036;2023-06-04T04:29:28;4.88;;;1.88;;
75718;SDS011;64340;48.534;-3.036;2023-06-04T04:34:27;3.85;;;1.60;;
75718;SDS011;64340;48.534;-3.036;2023-06-04T04:36:53;4.05;;;1.73;;
75718;SDS011;64340;48.534;-3.036;2023-06-04T04:39:24;3.40;;;1.70;;
75718;SDS011;64340;48.534;-3.036;2023-06-04T04:41:51;3.63;;;1.80;;
75718;SDS011;64340;48.534;-3.036;2023-06-04T04:44:17;7.47;;;1.92;;
75718;SDS011;64340;48.534;-3.036;2023-06-04T04:46:42;4.65;;;1.50;;
75718;SDS011;64340;48.534;-3.036;2023-06-04T04:49:08;4.07;;;1.65;;
75718;SDS011;64340;48.534;-3.036;2023-06-04T04:51:34;3.47;;;1.65;;
75718;SDS011;64340;48.534;-3.036;2023-06-04T04:54:00;5.22;;;1.63;;
75718;SDS011;64340;48.534;-3.036;2023-06-04T04:56:27;4.25;;;1.80;;
75718;SDS011;64340;48.534;-3.036;2023-06-04T04:58:53;2.95;;;1.30;;
75718;SDS011;64340;48.534;-3.036;2023-06-04T05:01:19;4.47;;;1.58;;
75718;SDS011;64340;48.534;-3.036;2023-06-04T05:03:46;5.10;;;1.98;;
75718;SDS011;64340;48.534;-3.036;2023-06-04T05:06:12;3.78;;;1.80;;
75718;SDS011;64340;48.534;-3.036;2023-06-04T05:08:37;4.30;;;1.70;;
75718;SDS011;64340;48.534;-3.036;2023-06-04T05:11:03;4.38;;;1.52;;
75718;SDS011;64340;48.534;-3.036;2023-06-04T05:13:29;4.50;;;1.65;;
75718;SDS011;64340;48.534;-3.036;2023-06-04T05:15:55;4.07;;;1.30;;
75718;SDS011;64340;48.534;-3.036;2023-06-04T05:18:21;4.05;;;2.10;;
75718;SDS011;64340;48.534;-3.036;2023-06-04T05:20:57;2.70;;;1.33;;
75718;SDS011;64340;48.534;-3.036;2023-06-04T05:23:25;4.47;;;1.60;;
75718;SDS011;64340;48.534;-3.036;2023-06-04T05:25:59;4.10;;;1.60;;
75718;SDS011;64340;48.534;-3.036;2023-06-04T05:28:26;4.15;;;1.80;;
75718;SDS011;64340;48.534;-3.036;2023-06-04T05:30:52;2.88;;;1.60;;
75718;SDS011;64340;48.534;-3.036;2023-06-04T05:33:24;3.85;;;1.50;;
75718;SDS011;64340;48.534;-3.036;2023-06-04T05:35:50;4.65;;;1.70;;
75718;SDS011;64340;48.534;-3.036;2023-06-04T05:38:25;3.20;;;1.20;;
75718;SDS011;64340;48.534;-3.036;2023-06-04T05:40:51;3.25;;;1.38;;
75718;SDS011;64340;48.534;-3.036;2023-06-04T05:43:18;2.88;;;1.55;;
75718;SDS011;64340;48.534;-3.036;2023-06-04T05:45:44;4.93;;;1.73;;
75718;SDS011;64340;48.534;-3.036;2023-06-04T05:48:10;4.18;;;1.30;;
75718;SDS011;64340;48.534;-3.036;2023-06-04T05:50:36;3.95;;;1.35;;
75718;SDS011;64340;48.534;-3.036;2023-06-04T05:53:01;5.60;;;1.73;;
75718;SDS011;64340;48.534;-3.036;2023-06-04T05:55:27;3.75;;;1.55;;
75718;SDS011;64340;48.534;-3.036;2023-06-04T05:57:54;3.97;;;1.60;;
75718;SDS011;64340;48.534;-3.036;2023-06-04T06:00:20;4.13;;;1.65;;
75718;SDS011;64340;48.534;-3.036;2023-06-04T06:02:46;5.57;;;1.90;;
75718;SDS011;64340;48.534;-3.036;2023-06-04T06:05:15;4.55;;;1.50;;
75718;SDS011;64340;48.534;-3.036;2023-06-04T06:07:42;5.97;;;2.03;;
75718;SDS011;64340;48.534;-3.036;2023-06-04T06:10:09;4.22;;;2.38;;
75718;SDS011;64340;48.534;-3.036;2023-06-04T06:12:35;9.05;;;3.55;;
75718;SDS011;64340;48.534;-3.036;2023-06-04T06:15:01;7.32;;;2.72;;
75718;SDS011;64340;48.534;-3.036;2023-06-04T06:17:27;8.40;;;2.60;;
75718;SDS011;64340;48.534;-3.036;2023-06-04T06:19:53;7.22;;;2.75;;
75718;SDS011;64340;48.534;-3.036;2023-06-04T06:22:20;8.68;;;2.55;;
75718;SDS011;64340;48.534;-3.036;2023-06-04T06:24:47;6.72;;;2.35;;
75718;SDS011;64340;48.534;-3.036;2023-06-04T06:27:16;7.60;;;3.05;;
75718;SDS011;64340;48.534;-3.036;2023-06-04T06:29:42;13.70;;;2.90;;
75718;SDS011;64340;48.534;-3.036;2023-06-04T06:32:08;8.88;;;2.85;;
75718;SDS011;64340;48.534;-3.036;2023-06-04T06:34:38;9.05;;;2.75;;
75718;SDS011;64340;48.534;-3.036;2023-06-04T06:37:04;10.80;;;2.90;;
75718;SDS011;64340;48.534;-3.036;2023-06-04T06:39:31;10.05;;;3.83;;
75718;SDS011;64340;48.534;-3.036;2023-06-04T06:41:58;9.55;;;3.63;;
75718;SDS011;64340;48.534;-3.036;2023-06-04T06:44:23;11.07;;;3.45;;
75718;SDS011;64340;48.534;-3.036;2023-06-04T06:46:49;10.65;;;3.33;;
75718;SDS011;64340;48.534;-3.036;2023-06-04T06:49:15;9.98;;;3.38;;
75718;SDS011;64340;48.534;-3.036;2023-06-04T06:51:41;12.38;;;3.42;;
75718;SDS011;64340;48.534;-3.036;2023-06-04T06:54:10;16.33;;;4.32;;
75718;SDS011;64340;48.534;-3.036;2023-06-04T06:56:36;16.65;;;4.55;;
75718;SDS011;64340;48.534;-3.036;2023-06-04T06:59:01;19.20;;;3.97;;
75718;SDS011;64340;48.534;-3.036;2023-06-04T07:01:27;15.10;;;4.30;;
75718;SDS011;64340;48.534;-3.036;2023-06-04T07:03:53;25.52;;;4.47;;
75718;SDS011;64340;48.534;-3.036;2023-06-04T07:06:19;17.27;;;4.15;;
75718;SDS011;64340;48.534;-3.036;2023-06-04T07:08:44;18.73;;;4.43;;
75718;SDS011;64340;48.534;-3.036;2023-06-04T07:11:13;15.25;;;4.82;;
75718;SDS011;64340;48.534;-3.036;2023-06-04T07:13:39;15.07;;;3.83;;
75718;SDS011;64340;48.534;-3.036;2023-06-04T07:16:05;12.40;;;4.47;;
75718;SDS011;64340;48.534;-3.036;2023-06-04T07:18:31;16.55;;;4.15;;
75718;SDS011;64340;48.534;-3.036;2023-06-04T07:20:57;16.52;;;4.45;;
75718;SDS011;64340;48.534;-3.036;2023-06-04T07:23:23;14.88;;;3.95;;
75718;SDS011;64340;48.534;-3.036;2023-06-04T07:25:49;14.15;;;3.85;;
75718;SDS011;64340;48.534;-3.036;2023-06-04T07:28:15;9.85;;;3.88;;
75718;SDS011;64340;48.534;-3.036;2023-06-04T07:30:41;15.13;;;4.30;;
75718;SDS011;64340;48.534;-3.036;2023-06-04T07:33:07;15.93;;;4.10;;
75718;SDS011;64340;48.534;-3.036;2023-06-04T07:35:33;17.35;;;4.10;;
75718;SDS011;64340;48.534;-3.036;2023-06-04T07:37:59;14.82;;;3.80;;
75718;SDS011;64340;48.534;-3.036;2023-06-04T07:40:25;17.38;;;4.65;;
75718;SDS011;64340;48.534;-3.036;2023-06-04T07:42:50;13.23;;;4.38;;
75718;SDS011;64340;48.534;-3.036;2023-06-04T07:45:16;14.45;;;3.85;;
75718;SDS011;64340;48.534;-3.036;2023-06-04T07:47:42;13.73;;;4.15;;
75718;SDS011;64340;48.534;-3.036;2023-06-04T07:50:08;14.35;;;4.10;;
75718;SDS011;64340;48.534;-3.036;2023-06-04T07:52:35;16.33;;;3.78;;
75718;SDS011;64340;48.534;-3.036;2023-06-04T07:55:02;19.38;;;4.15;;
75718;SDS011;64340;48.534;-3.036;2023-06-04T07:57:30;13.95;;;4.78;;
75718;SDS011;64340;48.534;-3.036;2023-06-04T07:59:57;13.55;;;3.80;;
75718;SDS011;64340;48.534;-3.036;2023-06-04T08:02:22;13.95;;;4.07;;
75718;SDS011;64340;48.534;-3.036;2023-06-04T08:04:48;12.40;;;3.78;;
75718;SDS011;64340;48.534;-3.036;2023-06-04T08:07:15;18.02;;;4.53;;
75718;SDS011;64340;48.534;-3.036;2023-06-04T08:09:40;13.23;;;3.70;;
75718;SDS011;64340;48.534;-3.036;2023-06-04T08:12:06;11.85;;;3.83;;
75718;SDS011;64340;48.534;-3.036;2023-06-04T08:14:32;11.77;;;4.05;;
75718;SDS011;64340;48.534;-3.036;2023-06-04T08:16:58;15.38;;;3.60;;
75718;SDS011;64340;48.534;-3.036;2023-06-04T08:19:24;11.98;;;3.78;;
75718;SDS011;64340;48.534;-3.036;2023-06-04T08:21:50;12.30;;;3.42;;
75718;SDS011;64340;48.534;-3.036;2023-06-04T08:24:16;13.90;;;3.88;;
75718;SDS011;64340;48.534;-3.036;2023-06-04T08:26:42;14.95;;;4.50;;
75718;SDS011;64340;48.534;-3.036;2023-06-04T08:29:08;13.90;;;3.70;;
75718;SDS011;64340;48.534;-3.036;2023-06-04T08:31:34;11.50;;;3.92;;
75718;SDS011;64340;48.534;-3.036;2023-06-04T08:34:00;10.80;;;3.65;;
75718;SDS011;64340;48.534;-3.036;2023-06-04T08:36:26;10.95;;;3.67;;
75718;SDS011;64340;48.534;-3.036;2023-06-04T08:38:53;8.35;;;3.38;;
75718;SDS011;64340;48.534;-3.036;2023-06-04T08:41:28;10.52;;;3.90;;
75718;SDS011;64340;48.534;-3.036;2023-06-04T08:44:06;15.65;;;4.00;;
75718;SDS011;64340;48.534;-3.036;2023-06-04T08:46:34;12.02;;;3.40;;
75718;SDS011;64340;48.534;-3.036;2023-06-04T08:49:05;11.80;;;4.00;;
75718;SDS011;64340;48.534;-3.036;2023-06-04T08:51:33;8.68;;;3.63;;
75718;SDS011;64340;48.534;-3.036;2023-06-04T08:54:06;12.45;;;3.40;;
75718;SDS011;64340;48.534;-3.036;2023-06-04T08:56:35;13.50;;;3.50;;
75718;SDS011;64340;48.534;-3.036;2023-06-04T09:01:28;15.88;;;3.75;;
75718;SDS011;64340;48.534;-3.036;2023-06-04T09:03:59;12.15;;;2.85;;
75718;SDS011;64340;48.534;-3.036;2023-06-04T09:06:26;8.60;;;2.95;;
75718;SDS011;64340;48.534;-3.036;2023-06-04T09:08:52;12.30;;;3.33;;
75718;SDS011;64340;48.534;-3.036;2023-06-04T09:11:23;10.27;;;3.40;;
75718;SDS011;64340;48.534;-3.036;2023-06-04T09:13:59;12.88;;;3.53;;
75718;SDS011;64340;48.534;-3.036;2023-06-04T09:16:26;9.25;;;2.95;;
75718;SDS011;64340;48.534;-3.036;2023-06-04T09:18:52;8.82;;;3.20;;
75718;SDS011;64340;48.534;-3.036;2023-06-04T09:21:19;8.95;;;3.00;;
75718;SDS011;64340;48.534;-3.036;2023-06-04T09:23:46;11.80;;;2.95;;
75718;SDS011;64340;48.534;-3.036;2023-06-04T09:26:12;13.70;;;3.30;;
75718;SDS011;64340;48.534;-3.036;2023-06-04T09:28:42;14.48;;;3.70;;
75718;SDS011;64340;48.534;-3.036;2023-06-04T09:31:17;12.65;;;3.92;;
75718;SDS011;64340;48.534;-3.036;2023-06-04T09:33:49;16.67;;;4.55;;
75718;SDS011;64340;48.534;-3.036;2023-06-04T09:36:17;18.13;;;4.50;;
75718;SDS011;64340;48.534;-3.036;2023-06-04T09:38:43;16.10;;;4.43;;
75718;SDS011;64340;48.534;-3.036;2023-06-04T09:41:17;19.25;;;4.60;;
75718;SDS011;64340;48.534;-3.036;2023-06-04T09:43:46;17.30;;;4.38;;
75718;SDS011;64340;48.534;-3.036;2023-06-04T09:46:13;11.93;;;3.47;;
75718;SDS011;64340;48.534;-3.036;2023-06-04T09:48:40;16.52;;;4.20;;
75718;SDS011;64340;48.534;-3.036;2023-06-04T09:51:07;18.00;;;5.90;;
75718;SDS011;64340;48.534;-3.036;2023-06-04T09:53:34;15.65;;;4.53;;
75718;SDS011;64340;48.534;-3.036;2023-06-04T09:56:00;22.85;;;6.35;;
75718;SDS011;64340;48.534;-3.036;2023-06-04T09:58:36;21.13;;;5.28;;
75718;SDS011;64340;48.534;-3.036;2023-06-04T10:01:04;22.75;;;5.68;;
75718;SDS011;64340;48.534;-3.036;2023-06-04T10:03:34;19.55;;;6.25;;
75718;SDS011;64340;48.534;-3.036;2023-06-04T10:06:05;19.95;;;6.00;;
75718;SDS011;64340;48.534;-3.036;2023-06-04T10:08:32;23.02;;;5.78;;
75718;SDS011;64340;48.534;-3.036;2023-06-04T10:10:59;20.25;;;6.43;;
75718;SDS011;64340;48.534;-3.036;2023-06-04T10:13:27;21.67;;;6.45;;
75718;SDS011;64340;48.534;-3.036;2023-06-04T10:15:58;19.85;;;5.55;;
75718;SDS011;64340;48.534;-3.036;2023-06-04T10:18:26;23.88;;;5.45;;
75718;SDS011;64340;48.534;-3.036;2023-06-04T10:20:56;17.88;;;5.30;;
75718;SDS011;64340;48.534;-3.036;2023-06-04T10:23:23;15.68;;;4.47;;
75718;SDS011;64340;48.534;-3.036;2023-06-04T10:25:49;17.17;;;5.13;;
75718;SDS011;64340;48.534;-3.036;2023-06-04T10:28:18;17.55;;;4.47;;
75718;SDS011;64340;48.534;-3.036;2023-06-04T10:30:47;18.48;;;5.00;;
75718;SDS011;64340;48.534;-3.036;2023-06-04T10:33:20;17.48;;;4.70;;
75718;SDS011;64340;48.534;-3.036;2023-06-04T10:35:49;12.05;;;4.30;;
75718;SDS011;64340;48.534;-3.036;2023-06-04T10:38:20;12.70;;;4.03;;
75718;SDS011;64340;48.534;-3.036;2023-06-04T10:40:47;13.52;;;4.18;;
75718;SDS011;64340;48.534;-3.036;2023-06-04T10:43:13;14.52;;;4.20;;
75718;SDS011;64340;48.534;-3.036;2023-06-04T10:45:42;14.65;;;4.53;;
75718;SDS011;64340;48.534;-3.036;2023-06-04T10:48:09;13.27;;;4.07;;
75718;SDS011;64340;48.534;-3.036;2023-06-04T10:50:47;12.00;;;4.10;;
75718;SDS011;64340;48.534;-3.036;2023-06-04T10:53:15;11.93;;;3.92;;
75718;SDS011;64340;48.534;-3.036;2023-06-04T10:55:45;14.60;;;3.85;;
75718;SDS011;64340;48.534;-3.036;2023-06-04T10:58:12;10.60;;;3.22;;
75718;SDS011;64340;48.534;-3.036;2023-06-04T11:00:38;13.88;;;4.45;;
75718;SDS011;64340;48.534;-3.036;2023-06-04T11:03:10;9.98;;;2.97;;
75718;SDS011;64340;48.534;-3.036;2023-06-04T11:05:40;8.05;;;3.33;;
75718;SDS011;64340;48.534;-3.036;2023-06-04T11:08:11;14.98;;;3.60;;
75718;SDS011;64340;48.534;-3.036;2023-06-04T11:10:40;11.98;;;3.92;;
75718;SDS011;64340;48.534;-3.036;2023-06-04T11:13:07;10.55;;;3.13;;
75718;SDS011;64340;48.534;-3.036;2023-06-04T11:15:45;10.00;;;3.05;;
75718;SDS011;64340;48.534;-3.036;2023-06-04T11:18:22;8.77;;;2.85;;
75718;SDS011;64340;48.534;-3.036;2023-06-04T11:20:49;13.13;;;3.90;;
75718;SDS011;64340;48.534;-3.036;2023-06-04T11:23:25;13.30;;;3.97;;
75718;SDS011;64340;48.534;-3.036;2023-06-04T11:25:53;13.73;;;3.10;;
75718;SDS011;64340;48.534;-3.036;2023-06-04T11:28:20;10.25;;;2.78;;
75718;SDS011;64340;48.534;-3.036;2023-06-04T11:30:56;7.40;;;2.35;;
75718;SDS011;64340;48.534;-3.036;2023-06-04T11:33:22;7.68;;;2.92;;
75718;SDS011;64340;48.534;-3.036;2023-06-04T11:35:48;10.02;;;2.92;;
75718;SDS011;64340;48.534;-3.036;2023-06-04T11:38:14;8.98;;;2.67;;
75718;SDS011;64340;48.534;-3.036;2023-06-04T11:40:40;12.30;;;2.92;;
75718;SDS011;64340;48.534;-3.036;2023-06-04T11:43:10;7.60;;;3.10;;
75718;SDS011;64340;48.534;-3.036;2023-06-04T11:45:36;9.10;;;3.00;;
75718;SDS011;64340;48.534;-3.036;2023-06-04T11:48:02;8.63;;;3.08;;
75718;SDS011;64340;48.534;-3.036;2023-06-04T11:50:30;9.45;;;2.95;;
75718;SDS011;64340;48.534;-3.036;2023-06-04T11:52:56;10.88;;;3.47;;
75718;SDS011;64340;48.534;-3.036;2023-06-04T11:55:23;15.13;;;2.90;;
75718;SDS011;64340;48.534;-3.036;2023-06-04T11:57:49;10.52;;;2.97;;
75718;SDS011;64340;48.534;-3.036;2023-06-04T12:00:16;8.32;;;2.63;;
75718;SDS011;64340;48.534;-3.036;2023-06-04T12:05:16;6.13;;;2.30;;
75718;SDS011;64340;48.534;-3.036;2023-06-04T12:07:51;8.43;;;2.75;;
75718;SDS011;64340;48.534;-3.036;2023-06-04T12:10:20;7.28;;;2.92;;
75718;SDS011;64340;48.534;-3.036;2023-06-04T12:15:19;10.02;;;2.53;;
75718;SDS011;64340;48.534;-3.036;2023-06-04T12:17:49;9.05;;;2.58;;
75718;SDS011;64340;48.534;-3.036;2023-06-04T12:20:18;7.22;;;2.70;;
75718;SDS011;64340;48.534;-3.036;2023-06-04T12:22:55;9.00;;;2.58;;
75718;SDS011;64340;48.534;-3.036;2023-06-04T12:25:27;7.65;;;2.20;;
75718;SDS011;64340;48.534;-3.036;2023-06-04T12:27:55;6.80;;;2.47;;
75718;SDS011;64340;48.534;-3.036;2023-06-04T12:30:21;9.30;;;2.60;;
75718;SDS011;64340;48.534;-3.036;2023-06-04T12:32:47;8.00;;;2.42;;
75718;SDS011;64340;48.534;-3.036;2023-06-04T12:35:14;8.63;;;2.78;;
75718;SDS011;64340;48.534;-3.036;2023-06-04T12:37:41;8.10;;;2.58;;
75718;SDS011;64340;48.534;-3.036;2023-06-04T12:40:07;6.95;;;2.22;;
75718;SDS011;64340;48.534;-3.036;2023-06-04T12:42:34;7.32;;;2.47;;
75718;SDS011;64340;48.534;-3.036;2023-06-04T12:44:59;7.78;;;2.25;;
75718;SDS011;64340;48.534;-3.036;2023-06-04T12:47:25;6.97;;;2.45;;
75718;SDS011;64340;48.534;-3.036;2023-06-04T12:49:51;9.15;;;2.60;;
75718;SDS011;64340;48.534;-3.036;2023-06-04T12:52:17;6.78;;;2.58;;
75718;SDS011;64340;48.534;-3.036;2023-06-04T12:54:43;5.50;;;2.10;;
75718;SDS011;64340;48.534;-3.036;2023-06-04T12:57:09;7.05;;;2.70;;
75718;SDS011;64340;48.534;-3.036;2023-06-04T12:59:35;5.07;;;2.10;;
75718;SDS011;64340;48.534;-3.036;2023-06-04T13:02:00;6.55;;;2.33;;
75718;SDS011;64340;48.534;-3.036;2023-06-04T13:04:26;10.10;;;2.45;;
75718;SDS011;64340;48.534;-3.036;2023-06-04T13:06:52;6.40;;;2.08;;
75718;SDS011;64340;48.534;-3.036;2023-06-04T13:09:23;9.52;;;2.83;;
75718;SDS011;64340;48.534;-3.036;2023-06-04T13:11:50;7.22;;;2.42;;
75718;SDS011;64340;48.534;-3.036;2023-06-04T13:14:16;8.13;;;2.63;;
75718;SDS011;64340;48.534;-3.036;2023-06-04T13:16:42;5.55;;;2.08;;
75718;SDS011;64340;48.534;-3.036;2023-06-04T13:19:08;5.63;;;2.35;;
75718;SDS011;64340;48.534;-3.036;2023-06-04T13:21:34;7.78;;;2.60;;
75718;SDS011;64340;48.534;-3.036;2023-06-04T13:24:00;7.50;;;2.45;;
75718;SDS011;64340;48.534;-3.036;2023-06-04T13:26:26;6.00;;;2.22;;
75718;SDS011;64340;48.534;-3.036;2023-06-04T13:28:52;6.63;;;1.95;;
75718;SDS011;64340;48.534;-3.036;2023-06-04T13:31:17;5.45;;;2.50;;
75718;SDS011;64340;48.534;-3.036;2023-06-04T13:33:43;9.20;;;2.55;;
75718;SDS011;64340;48.534;-3.036;2023-06-04T13:36:09;6.65;;;2.47;;
75718;SDS011;64340;48.534;-3.036;2023-06-04T13:38:35;9.75;;;2.60;;
75718;SDS011;64340;48.534;-3.036;2023-06-04T13:41:01;12.05;;;2.58;;
75718;SDS011;64340;48.534;-3.036;2023-06-04T13:43:27;5.05;;;2.13;;
75718;SDS011;64340;48.534;-3.036;2023-06-04T13:45:52;7.40;;;2.40;;
75718;SDS011;64340;48.534;-3.036;2023-06-04T13:48:18;6.50;;;2.20;;
75718;SDS011;64340;48.534;-3.036;2023-06-04T13:50:45;5.55;;;2.60;;
75718;SDS011;64340;48.534;-3.036;2023-06-04T13:53:11;7.00;;;2.97;;
75718;SDS011;64340;48.534;-3.036;2023-06-04T13:55:39;6.93;;;2.45;;
75718;SDS011;64340;48.534;-3.036;2023-06-04T13:58:05;9.43;;;2.58;;
75718;SDS011;64340;48.534;-3.036;2023-06-04T14:00:32;10.05;;;3.10;;
75718;SDS011;64340;48.534;-3.036;2023-06-04T14:02:58;7.90;;;2.65;;
75718;SDS011;64340;48.534;-3.036;2023-06-04T14:05:24;7.07;;;2.55;;
75718;SDS011;64340;48.534;-3.036;2023-06-04T14:07:52;8.15;;;2.33;;
75718;SDS011;64340;48.534;-3.036;2023-06-04T14:10:18;6.50;;;2.40;;
75718;SDS011;64340;48.534;-3.036;2023-06-04T14:12:44;7.05;;;2.45;;
75718;SDS011;64340;48.534;-3.036;2023-06-04T14:15:10;6.55;;;2.63;;
75718;SDS011;64340;48.534;-3.036;2023-06-04T14:17:39;6.07;;;2.45;;
75718;SDS011;64340;48.534;-3.036;2023-06-04T14:20:05;9.70;;;2.80;;
75718;SDS011;64340;48.534;-3.036;2023-06-04T14:22:36;9.88;;;2.67;;
75718;SDS011;64340;48.534;-3.036;2023-06-04T14:25:03;6.60;;;2.45;;
75718;SDS011;64340;48.534;-3.036;2023-06-04T14:27:32;5.15;;;2.40;;
75718;SDS011;64340;48.534;-3.036;2023-06-04T14:29:58;9.65;;;2.85;;
75718;SDS011;64340;48.534;-3.036;2023-06-04T14:32:24;10.82;;;2.85;;
75718;SDS011;64340;48.534;-3.036;2023-06-04T14:34:50;7.93;;;2.47;;
75718;SDS011;64340;48.534;-3.036;2023-06-04T14:37:16;7.30;;;2.75;;
75718;SDS011;64340;48.534;-3.036;2023-06-04T14:39:42;8.95;;;2.60;;
75718;SDS011;64340;48.534;-3.036;2023-06-04T14:42:08;6.63;;;2.53;;
75718;SDS011;64340;48.534;-3.036;2023-06-04T14:44:34;7.88;;;2.55;;
75718;SDS011;64340;48.534;-3.036;2023-06-04T14:47:00;8.32;;;2.70;;
75718;SDS011;64340;48.534;-3.036;2023-06-04T14:49:25;6.45;;;2.70;;